sensor_id;sensor_type;location;lat;lon;timestamp;P1;durP1;ratioP1;P2;durP2;ratioP2
61188;SDS011;47054;39.716;2.904;2023-06-22T00:01:21;46.65;;;11.82;;
61188;SDS011;47054;39.716;2.904;2023-06-22T00:04:09;34.35;;;10.90;;
61188;SDS011;47054;39.716;2.904;2023-06-22T00:06:54;51.33;;;12.27;;
61188;SDS011;47054;39.716;2.904;2023-06-22T00:09:39;46.13;;;12.70;;
61188;SDS011;47054;39.716;2.904;2023-06-22T00:12:23;37.72;;;11.68;;
61188;SDS011;47054;39.716;2.904;2023-06-22T00:15:09;40.28;;;10.93;;
61188;SDS011;47054;39.716;2.904;2023-06-22T00:17:54;36.13;;;11.13;;
61188;SDS011;47054;39.716;2.904;2023-06-22T00:20:38;46.45;;;11.30;;
61188;SDS011;47054;39.716;2.904;2023-06-22T00:23:24;70.28;;;12.13;;
61188;SDS011;47054;39.716;2.904;2023-06-22T00:26:09;46.03;;;12.07;;
61188;SDS011;47054;39.716;2.904;2023-06-22T00:28:55;46.97;;;12.25;;
61188;SDS011;47054;39.716;2.904;2023-06-22T00:31:40;53.28;;;12.30;;
61188;SDS011;47054;39.716;2.904;2023-06-22T00:34:25;61.45;;;13.82;;
61188;SDS011;47054;39.716;2.904;2023-06-22T00:37:10;41.65;;;11.30;;
61188;SDS011;47054;39.716;2.904;2023-06-22T00:39:55;64.97;;;11.80;;
61188;SDS011;47054;39.716;2.904;2023-06-22T00:42:41;49.20;;;12.10;;
61188;SDS011;47054;39.716;2.904;2023-06-22T00:45:26;53.13;;;12.45;;
61188;SDS011;47054;39.716;2.904;2023-06-22T00:48:11;38.60;;;11.75;;
61188;SDS011;47054;39.716;2.904;2023-06-22T00:50:56;43.67;;;12.27;;
61188;SDS011;47054;39.716;2.904;2023-06-22T00:53:41;41.47;;;11.82;;
61188;SDS011;47054;39.716;2.904;2023-06-22T00:56:28;47.88;;;13.18;;
61188;SDS011;47054;39.716;2.904;2023-06-22T00:59:13;52.38;;;11.70;;
61188;SDS011;47054;39.716;2.904;2023-06-22T01:02:01;50.47;;;11.82;;
61188;SDS011;47054;39.716;2.904;2023-06-22T01:04:46;46.00;;;12.10;;
61188;SDS011;47054;39.716;2.904;2023-06-22T01:17:09;56.72;;;11.90;;
61188;SDS011;47054;39.716;2.904;2023-06-22T01:19:57;58.83;;;12.80;;
61188;SDS011;47054;39.716;2.904;2023-06-22T01:23:33;43.65;;;11.85;;
61188;SDS011;47054;39.716;2.904;2023-06-22T01:29:26;43.42;;;11.18;;
61188;SDS011;47054;39.716;2.904;2023-06-22T01:32:13;48.17;;;11.23;;
61188;SDS011;47054;39.716;2.904;2023-06-22T01:35:01;42.22;;;11.68;;
61188;SDS011;47054;39.716;2.904;2023-06-22T01:37:49;46.75;;;10.70;;
61188;SDS011;47054;39.716;2.904;2023-06-22T01:40:36;42.10;;;11.25;;
61188;SDS011;47054;39.716;2.904;2023-06-22T01:43:22;50.17;;;10.57;;
61188;SDS011;47054;39.716;2.904;2023-06-22T01:46:09;37.50;;;10.85;;
61188;SDS011;47054;39.716;2.904;2023-06-22T01:48:56;53.97;;;11.10;;
61188;SDS011;47054;39.716;2.904;2023-06-22T01:51:41;37.60;;;11.13;;
61188;SDS011;47054;39.716;2.904;2023-06-22T01:54:26;57.70;;;12.60;;
61188;SDS011;47054;39.716;2.904;2023-06-22T01:57:11;32.85;;;12.52;;
61188;SDS011;47054;39.716;2.904;2023-06-22T02:02:54;49.38;;;12.85;;
61188;SDS011;47054;39.716;2.904;2023-06-22T02:05:55;53.78;;;13.98;;
61188;SDS011;47054;39.716;2.904;2023-06-22T02:08:51;60.92;;;13.05;;
61188;SDS011;47054;39.716;2.904;2023-06-22T02:11:44;41.50;;;12.35;;
61188;SDS011;47054;39.716;2.904;2023-06-22T02:14:33;51.03;;;13.77;;
61188;SDS011;47054;39.716;2.904;2023-06-22T02:17:20;44.17;;;12.10;;
61188;SDS011;47054;39.716;2.904;2023-06-22T02:20:05;52.85;;;12.65;;
61188;SDS011;47054;39.716;2.904;2023-06-22T02:22:55;43.78;;;12.23;;
61188;SDS011;47054;39.716;2.904;2023-06-22T02:25:41;48.22;;;12.23;;
61188;SDS011;47054;39.716;2.904;2023-06-22T02:28:30;40.67;;;12.50;;
61188;SDS011;47054;39.716;2.904;2023-06-22T02:31:15;60.10;;;12.65;;
61188;SDS011;47054;39.716;2.904;2023-06-22T02:34:00;40.90;;;12.05;;
61188;SDS011;47054;39.716;2.904;2023-06-22T02:36:48;57.22;;;12.35;;
61188;SDS011;47054;39.716;2.904;2023-06-22T02:39:36;44.40;;;11.38;;
61188;SDS011;47054;39.716;2.904;2023-06-22T02:42:21;45.42;;;11.43;;
61188;SDS011;47054;39.716;2.904;2023-06-22T02:45:08;53.45;;;12.95;;
61188;SDS011;47054;39.716;2.904;2023-06-22T02:47:53;49.95;;;13.45;;
61188;SDS011;47054;39.716;2.904;2023-06-22T02:50:38;42.13;;;11.73;;
61188;SDS011;47054;39.716;2.904;2023-06-22T02:53:23;49.30;;;12.10;;
61188;SDS011;47054;39.716;2.904;2023-06-22T02:56:08;45.85;;;12.30;;
61188;SDS011;47054;39.716;2.904;2023-06-22T02:58:56;58.58;;;12.80;;
61188;SDS011;47054;39.716;2.904;2023-06-22T03:01:45;37.00;;;11.77;;
61188;SDS011;47054;39.716;2.904;2023-06-22T03:04:39;46.20;;;12.38;;
61188;SDS011;47054;39.716;2.904;2023-06-22T03:07:23;46.90;;;12.27;;
61188;SDS011;47054;39.716;2.904;2023-06-22T03:10:10;47.55;;;13.02;;
61188;SDS011;47054;39.716;2.904;2023-06-22T03:12:56;38.95;;;12.80;;
61188;SDS011;47054;39.716;2.904;2023-06-22T03:15:41;44.97;;;12.23;;
61188;SDS011;47054;39.716;2.904;2023-06-22T03:18:26;51.10;;;12.70;;
61188;SDS011;47054;39.716;2.904;2023-06-22T03:21:16;46.95;;;11.27;;
61188;SDS011;47054;39.716;2.904;2023-06-22T03:24:01;48.08;;;12.00;;
61188;SDS011;47054;39.716;2.904;2023-06-22T03:26:47;45.60;;;12.15;;
61188;SDS011;47054;39.716;2.904;2023-06-22T03:29:31;41.80;;;11.23;;
61188;SDS011;47054;39.716;2.904;2023-06-22T03:32:17;61.17;;;12.77;;
61188;SDS011;47054;39.716;2.904;2023-06-22T03:35:01;41.65;;;12.45;;
61188;SDS011;47054;39.716;2.904;2023-06-22T03:37:48;56.75;;;12.70;;
61188;SDS011;47054;39.716;2.904;2023-06-22T03:40:32;48.58;;;13.25;;
61188;SDS011;47054;39.716;2.904;2023-06-22T03:43:18;51.83;;;12.40;;
61188;SDS011;47054;39.716;2.904;2023-06-22T03:46:03;55.33;;;13.05;;
61188;SDS011;47054;39.716;2.904;2023-06-22T03:48:48;39.15;;;12.18;;
61188;SDS011;47054;39.716;2.904;2023-06-22T03:51:33;33.42;;;11.25;;
61188;SDS011;47054;39.716;2.904;2023-06-22T03:54:18;48.65;;;12.48;;
61188;SDS011;47054;39.716;2.904;2023-06-22T03:57:03;43.92;;;11.98;;
61188;SDS011;47054;39.716;2.904;2023-06-22T03:59:48;45.45;;;12.63;;
61188;SDS011;47054;39.716;2.904;2023-06-22T04:02:33;47.70;;;12.63;;
61188;SDS011;47054;39.716;2.904;2023-06-22T04:05:20;45.95;;;12.50;;
61188;SDS011;47054;39.716;2.904;2023-06-22T04:08:04;48.67;;;12.32;;
61188;SDS011;47054;39.716;2.904;2023-06-22T04:10:49;45.65;;;12.55;;
61188;SDS011;47054;39.716;2.904;2023-06-22T04:13:34;44.42;;;12.52;;
61188;SDS011;47054;39.716;2.904;2023-06-22T04:16:18;49.47;;;12.63;;
61188;SDS011;47054;39.716;2.904;2023-06-22T04:19:04;49.20;;;12.20;;
61188;SDS011;47054;39.716;2.904;2023-06-22T04:21:49;53.38;;;11.95;;
61188;SDS011;47054;39.716;2.904;2023-06-22T04:24:33;46.72;;;13.30;;
61188;SDS011;47054;39.716;2.904;2023-06-22T04:27:19;58.63;;;12.95;;
61188;SDS011;47054;39.716;2.904;2023-06-22T04:30:07;57.20;;;13.43;;
61188;SDS011;47054;39.716;2.904;2023-06-22T04:32:54;55.28;;;14.07;;
61188;SDS011;47054;39.716;2.904;2023-06-22T04:35:41;51.58;;;14.55;;
61188;SDS011;47054;39.716;2.904;2023-06-22T04:38:29;62.78;;;16.05;;
61188;SDS011;47054;39.716;2.904;2023-06-22T04:41:17;61.80;;;15.18;;
61188;SDS011;47054;39.716;2.904;2023-06-22T04:44:08;57.83;;;13.52;;
61188;SDS011;47054;39.716;2.904;2023-06-22T04:47:12;60.15;;;13.98;;
61188;SDS011;47054;39.716;2.904;2023-06-22T04:49:57;63.25;;;13.60;;
61188;SDS011;47054;39.716;2.904;2023-06-22T04:52:43;62.35;;;13.40;;
61188;SDS011;47054;39.716;2.904;2023-06-22T04:55:28;60.65;;;20.08;;
61188;SDS011;47054;39.716;2.904;2023-06-22T19:32:00;16.90;;;4.50;;
61188;SDS011;47054;39.716;2.904;2023-06-22T19:34:47;17.02;;;5.40;;
61188;SDS011;47054;39.716;2.904;2023-06-22T19:37:31;14.85;;;4.20;;
61188;SDS011;47054;39.716;2.904;2023-06-22T19:40:17;8.07;;;3.53;;
61188;SDS011;47054;39.716;2.904;2023-06-22T19:43:02;9.85;;;3.75;;
61188;SDS011;47054;39.716;2.904;2023-06-22T19:45:49;7.88;;;3.35;;
61188;SDS011;47054;39.716;2.904;2023-06-22T19:48:34;9.25;;;3.60;;
61188;SDS011;47054;39.716;2.904;2023-06-22T19:51:20;9.50;;;3.65;;
61188;SDS011;47054;39.716;2.904;2023-06-22T19:54:09;7.13;;;3.30;;
61188;SDS011;47054;39.716;2.904;2023-06-22T19:56:55;8.93;;;3.58;;
61188;SDS011;47054;39.716;2.904;2023-06-22T19:59:40;12.73;;;3.47;;
61188;SDS011;47054;39.716;2.904;2023-06-22T20:02:26;9.52;;;3.30;;
61188;SDS011;47054;39.716;2.904;2023-06-22T20:05:12;10.57;;;3.60;;
61188;SDS011;47054;39.716;2.904;2023-06-22T20:08:01;13.25;;;3.78;;
61188;SDS011;47054;39.716;2.904;2023-06-22T20:10:46;11.80;;;4.15;;
61188;SDS011;47054;39.716;2.904;2023-06-22T20:13:31;14.75;;;4.00;;
61188;SDS011;47054;39.716;2.904;2023-06-22T20:16:16;11.45;;;3.78;;
61188;SDS011;47054;39.716;2.904;2023-06-22T20:19:11;12.02;;;3.30;;
61188;SDS011;47054;39.716;2.904;2023-06-22T20:22:06;9.57;;;3.20;;
61188;SDS011;47054;39.716;2.904;2023-06-22T20:24:51;11.23;;;3.35;;
61188;SDS011;47054;39.716;2.904;2023-06-22T20:27:41;8.02;;;3.13;;
61188;SDS011;47054;39.716;2.904;2023-06-22T20:30:27;8.20;;;3.00;;
61188;SDS011;47054;39.716;2.904;2023-06-22T20:33:15;9.95;;;4.03;;
61188;SDS011;47054;39.716;2.904;2023-06-22T20:36:00;15.02;;;4.57;;
61188;SDS011;47054;39.716;2.904;2023-06-22T20:38:47;10.07;;;3.70;;
61188;SDS011;47054;39.716;2.904;2023-06-22T20:41:32;10.30;;;3.38;;
61188;SDS011;47054;39.716;2.904;2023-06-22T20:44:18;11.30;;;3.95;;
61188;SDS011;47054;39.716;2.904;2023-06-22T20:47:03;13.10;;;3.95;;
61188;SDS011;47054;39.716;2.904;2023-06-22T20:49:48;11.45;;;3.75;;
61188;SDS011;47054;39.716;2.904;2023-06-22T20:52:35;7.15;;;3.13;;
61188;SDS011;47054;39.716;2.904;2023-06-22T20:55:19;8.82;;;3.40;;
61188;SDS011;47054;39.716;2.904;2023-06-22T20:58:06;8.57;;;3.40;;
61188;SDS011;47054;39.716;2.904;2023-06-22T21:00:53;8.85;;;3.17;;
61188;SDS011;47054;39.716;2.904;2023-06-22T21:03:39;7.45;;;3.33;;
61188;SDS011;47054;39.716;2.904;2023-06-22T21:06:24;13.88;;;3.65;;
61188;SDS011;47054;39.716;2.904;2023-06-22T21:09:08;8.95;;;3.33;;
61188;SDS011;47054;39.716;2.904;2023-06-22T21:11:53;11.60;;;3.22;;
61188;SDS011;47054;39.716;2.904;2023-06-22T21:14:39;9.52;;;3.00;;
61188;SDS011;47054;39.716;2.904;2023-06-22T21:17:24;9.80;;;3.03;;
61188;SDS011;47054;39.716;2.904;2023-06-22T21:20:09;8.77;;;3.90;;
61188;SDS011;47054;39.716;2.904;2023-06-22T21:22:54;11.73;;;2.92;;
61188;SDS011;47054;39.716;2.904;2023-06-22T21:25:39;8.65;;;3.85;;
61188;SDS011;47054;39.716;2.904;2023-06-22T21:28:26;17.75;;;3.85;;
61188;SDS011;47054;39.716;2.904;2023-06-22T21:31:10;8.30;;;3.35;;
61188;SDS011;47054;39.716;2.904;2023-06-22T21:33:55;8.50;;;3.30;;
61188;SDS011;47054;39.716;2.904;2023-06-22T21:36:41;14.15;;;4.07;;
61188;SDS011;47054;39.716;2.904;2023-06-22T21:39:26;10.73;;;3.63;;
61188;SDS011;47054;39.716;2.904;2023-06-22T21:42:10;12.43;;;4.32;;
61188;SDS011;47054;39.716;2.904;2023-06-22T21:44:55;12.77;;;4.00;;
61188;SDS011;47054;39.716;2.904;2023-06-22T21:47:40;14.52;;;4.32;;
61188;SDS011;47054;39.716;2.904;2023-06-22T21:50:24;7.13;;;3.53;;
61188;SDS011;47054;39.716;2.904;2023-06-22T21:53:09;9.65;;;4.00;;
61188;SDS011;47054;39.716;2.904;2023-06-22T21:55:54;9.35;;;4.13;;
61188;SDS011;47054;39.716;2.904;2023-06-22T21:58:38;17.90;;;4.50;;
61188;SDS011;47054;39.716;2.904;2023-06-22T22:01:23;9.95;;;4.20;;
61188;SDS011;47054;39.716;2.904;2023-06-22T22:04:08;18.50;;;4.45;;
61188;SDS011;47054;39.716;2.904;2023-06-22T22:06:52;15.88;;;4.28;;
61188;SDS011;47054;39.716;2.904;2023-06-22T22:09:37;16.58;;;4.82;;
61188;SDS011;47054;39.716;2.904;2023-06-22T22:12:22;13.82;;;4.47;;
61188;SDS011;47054;39.716;2.904;2023-06-22T22:15:06;10.82;;;4.30;;
61188;SDS011;47054;39.716;2.904;2023-06-22T22:17:51;22.48;;;5.55;;
61188;SDS011;47054;39.716;2.904;2023-06-22T22:20:36;17.48;;;5.07;;
61188;SDS011;47054;39.716;2.904;2023-06-22T22:23:21;15.13;;;5.47;;
61188;SDS011;47054;39.716;2.904;2023-06-22T22:26:07;18.25;;;5.80;;
61188;SDS011;47054;39.716;2.904;2023-06-22T22:28:51;16.38;;;5.90;;
61188;SDS011;47054;39.716;2.904;2023-06-22T22:31:36;14.88;;;5.00;;
61188;SDS011;47054;39.716;2.904;2023-06-22T22:34:24;16.00;;;5.75;;
61188;SDS011;47054;39.716;2.904;2023-06-22T22:37:09;17.33;;;6.35;;
61188;SDS011;47054;39.716;2.904;2023-06-22T22:39:53;11.65;;;5.32;;
61188;SDS011;47054;39.716;2.904;2023-06-22T22:42:38;21.60;;;6.50;;
61188;SDS011;47054;39.716;2.904;2023-06-22T22:45:23;14.32;;;5.57;;
61188;SDS011;47054;39.716;2.904;2023-06-22T22:48:08;20.60;;;5.47;;
61188;SDS011;47054;39.716;2.904;2023-06-22T22:50:53;16.52;;;5.43;;
61188;SDS011;47054;39.716;2.904;2023-06-22T22:53:38;15.40;;;5.65;;
61188;SDS011;47054;39.716;2.904;2023-06-22T22:56:24;19.17;;;5.68;;
61188;SDS011;47054;39.716;2.904;2023-06-22T22:59:09;12.18;;;5.10;;
61188;SDS011;47054;39.716;2.904;2023-06-22T23:01:54;17.38;;;5.53;;
61188;SDS011;47054;39.716;2.904;2023-06-22T23:04:38;18.02;;;5.50;;
61188;SDS011;47054;39.716;2.904;2023-06-22T23:07:24;18.83;;;5.20;;
61188;SDS011;47054;39.716;2.904;2023-06-22T23:10:12;18.55;;;5.55;;
61188;SDS011;47054;39.716;2.904;2023-06-22T23:12:57;15.32;;;5.45;;
61188;SDS011;47054;39.716;2.904;2023-06-22T23:15:42;14.30;;;5.10;;
61188;SDS011;47054;39.716;2.904;2023-06-22T23:18:27;20.83;;;5.43;;
61188;SDS011;47054;39.716;2.904;2023-06-22T23:21:12;22.20;;;6.40;;
61188;SDS011;47054;39.716;2.904;2023-06-22T23:23:57;14.45;;;4.55;;
61188;SDS011;47054;39.716;2.904;2023-06-22T23:26:41;17.40;;;4.82;;
61188;SDS011;47054;39.716;2.904;2023-06-22T23:29:27;51.60;;;19.92;;
61188;SDS011;47054;39.716;2.904;2023-06-22T23:32:12;22.48;;;10.05;;
61188;SDS011;47054;39.716;2.904;2023-06-22T23:34:58;26.17;;;8.93;;
61188;SDS011;47054;39.716;2.904;2023-06-22T23:37:43;22.58;;;7.57;;
61188;SDS011;47054;39.716;2.904;2023-06-22T23:40:31;16.58;;;6.25;;
61188;SDS011;47054;39.716;2.904;2023-06-22T23:43:16;17.13;;;6.80;;
61188;SDS011;47054;39.716;2.904;2023-06-22T23:46:03;15.85;;;5.80;;
61188;SDS011;47054;39.716;2.904;2023-06-22T23:48:48;14.93;;;5.72;;
61188;SDS011;47054;39.716;2.904;2023-06-22T23:51:33;22.67;;;5.75;;
61188;SDS011;47054;39.716;2.904;2023-06-22T23:54:18;32.30;;;10.30;;
61188;SDS011;47054;39.716;2.904;2023-06-22T23:57:03;18.58;;;7.55;;
61188;SDS011;47054;39.716;2.904;2023-06-22T23:59:50;47.85;;;20.77;;
